sensor_id;sensor_type;location;lat;lon;timestamp;P1;durP1;ratioP1;P2;durP2;ratioP2
8129;SDS011;4106;52.532;13.408;2022-09-21T00:01:40;1.90;;;1.80;;
8129;SDS011;4106;52.532;13.408;2022-09-21T00:04:09;1.80;;;1.67;;
8129;SDS011;4106;52.532;13.408;2022-09-21T00:06:37;2.30;;;2.10;;
8129;SDS011;4106;52.532;13.408;2022-09-21T00:09:06;1.73;;;1.62;;
8129;SDS011;4106;52.532;13.408;2022-09-21T00:11:35;1.98;;;1.87;;
8129;SDS011;4106;52.532;13.408;2022-09-21T00:14:05;1.83;;;1.73;;
8129;SDS011;4106;52.532;13.408;2022-09-21T00:16:33;2.17;;;1.90;;
8129;SDS011;4106;52.532;13.408;2022-09-21T00:19:02;2.50;;;2.10;;
8129;SDS011;4106;52.532;13.408;2022-09-21T00:21:31;1.90;;;1.80;;
8129;SDS011;4106;52.532;13.408;2022-09-21T00:24:00;1.62;;;1.50;;
8129;SDS011;4106;52.532;13.408;2022-09-21T00:26:28;2.17;;;1.90;;
8129;SDS011;4106;52.532;13.408;2022-09-21T00:28:58;2.03;;;1.80;;
8129;SDS011;4106;52.532;13.408;2022-09-21T00:31:27;1.58;;;1.55;;
8129;SDS011;4106;52.532;13.408;2022-09-21T00:33:55;1.87;;;1.75;;
8129;SDS011;4106;52.532;13.408;2022-09-21T00:36:24;1.83;;;1.73;;
8129;SDS011;4106;52.532;13.408;2022-09-21T00:38:54;1.70;;;1.60;;
8129;SDS011;4106;52.532;13.408;2022-09-21T00:41:22;1.70;;;1.60;;
8129;SDS011;4106;52.532;13.408;2022-09-21T00:44:23;1.83;;;1.60;;
8129;SDS011;4106;52.532;13.408;2022-09-21T00:46:34;2.45;;;1.80;;
8129;SDS011;4106;52.532;13.408;2022-09-21T00:49:03;2.40;;;1.67;;
8129;SDS011;4106;52.532;13.408;2022-09-21T00:51:32;1.90;;;1.70;;
8129;SDS011;4106;52.532;13.408;2022-09-21T00:54:01;2.00;;;1.67;;
8129;SDS011;4106;52.532;13.408;2022-09-21T00:56:29;2.03;;;1.55;;
8129;SDS011;4106;52.532;13.408;2022-09-21T00:58:58;3.08;;;2.20;;
8129;SDS011;4106;52.532;13.408;2022-09-21T01:01:27;1.70;;;1.60;;
8129;SDS011;4106;52.532;13.408;2022-09-21T01:03:56;1.98;;;1.60;;
8129;SDS011;4106;52.532;13.408;2022-09-21T01:06:25;4.93;;;1.80;;
8129;SDS011;4106;52.532;13.408;2022-09-21T01:08:54;1.70;;;1.60;;
8129;SDS011;4106;52.532;13.408;2022-09-21T01:11:26;2.30;;;1.60;;
8129;SDS011;4106;52.532;13.408;2022-09-21T01:13:58;2.22;;;1.60;;
8129;SDS011;4106;52.532;13.408;2022-09-21T01:17:01;2.25;;;1.60;;
8129;SDS011;4106;52.532;13.408;2022-09-21T01:19:14;1.77;;;1.67;;
8129;SDS011;4106;52.532;13.408;2022-09-21T01:21:42;1.67;;;1.58;;
8129;SDS011;4106;52.532;13.408;2022-09-21T01:29:29;1.80;;;1.70;;
8129;SDS011;4106;52.532;13.408;2022-09-21T01:31:59;2.90;;;1.65;;
8129;SDS011;4106;52.532;13.408;2022-09-21T01:34:29;1.42;;;1.33;;
8129;SDS011;4106;52.532;13.408;2022-09-21T01:36:57;1.67;;;1.42;;
8129;SDS011;4106;52.532;13.408;2022-09-21T01:39:25;1.92;;;1.52;;
8129;SDS011;4106;52.532;13.408;2022-09-21T01:41:55;1.50;;;1.40;;
8129;SDS011;4106;52.532;13.408;2022-09-21T01:44:25;1.50;;;1.40;;
8129;SDS011;4106;52.532;13.408;2022-09-21T01:46:52;2.30;;;1.70;;
8129;SDS011;4106;52.532;13.408;2022-09-21T01:49:24;1.70;;;1.60;;
8129;SDS011;4106;52.532;13.408;2022-09-21T01:51:52;1.98;;;1.77;;
8129;SDS011;4106;52.532;13.408;2022-09-21T01:54:21;1.42;;;1.33;;
8129;SDS011;4106;52.532;13.408;2022-09-21T01:56:53;1.35;;;1.30;;
8129;SDS011;4106;52.532;13.408;2022-09-21T01:59:23;2.08;;;1.42;;
8129;SDS011;4106;52.532;13.408;2022-09-21T02:01:52;1.50;;;1.40;;
8129;SDS011;4106;52.532;13.408;2022-09-21T02:04:19;1.50;;;1.50;;
8129;SDS011;4106;52.532;13.408;2022-09-21T02:06:48;1.58;;;1.48;;
8129;SDS011;4106;52.532;13.408;2022-09-21T02:09:17;1.20;;;1.20;;
8129;SDS011;4106;52.532;13.408;2022-09-21T02:11:46;1.40;;;1.30;;
8129;SDS011;4106;52.532;13.408;2022-09-21T02:14:16;1.60;;;1.50;;
8129;SDS011;4106;52.532;13.408;2022-09-21T02:16:46;1.73;;;1.20;;
8129;SDS011;4106;52.532;13.408;2022-09-21T02:19:17;1.40;;;1.40;;
8129;SDS011;4106;52.532;13.408;2022-09-21T02:22:23;1.45;;;1.33;;
8129;SDS011;4106;52.532;13.408;2022-09-21T02:24:34;1.50;;;1.40;;
8129;SDS011;4106;52.532;13.408;2022-09-21T02:27:10;1.37;;;1.27;;
8129;SDS011;4106;52.532;13.408;2022-09-21T02:32:11;1.30;;;1.25;;
8129;SDS011;4106;52.532;13.408;2022-09-21T02:34:43;1.48;;;1.37;;
8129;SDS011;4106;52.532;13.408;2022-09-21T02:37:18;1.55;;;1.30;;
8129;SDS011;4106;52.532;13.408;2022-09-21T02:42:30;1.42;;;1.33;;
8129;SDS011;4106;52.532;13.408;2022-09-21T02:45:00;1.37;;;1.27;;
8129;SDS011;4106;52.532;13.408;2022-09-21T02:47:29;1.50;;;1.40;;
8129;SDS011;4106;52.532;13.408;2022-09-21T02:49:58;1.40;;;1.30;;
8129;SDS011;4106;52.532;13.408;2022-09-21T02:52:26;1.58;;;1.30;;
8129;SDS011;4106;52.532;13.408;2022-09-21T02:54:55;1.55;;;1.45;;
8129;SDS011;4106;52.532;13.408;2022-09-21T02:57:23;1.35;;;1.35;;
8129;SDS011;4106;52.532;13.408;2022-09-21T02:59:52;1.30;;;1.30;;
8129;SDS011;4106;52.532;13.408;2022-09-21T03:02:21;1.30;;;1.20;;
8129;SDS011;4106;52.532;13.408;2022-09-21T03:04:50;1.73;;;1.60;;
8129;SDS011;4106;52.532;13.408;2022-09-21T03:07:19;1.50;;;1.40;;
8129;SDS011;4106;52.532;13.408;2022-09-21T03:09:48;1.70;;;1.50;;
8129;SDS011;4106;52.532;13.408;2022-09-21T03:12:17;1.00;;;1.00;;
8129;SDS011;4106;52.532;13.408;2022-09-21T03:14:45;1.15;;;1.15;;
8129;SDS011;4106;52.532;13.408;2022-09-21T03:17:14;1.83;;;1.20;;
8129;SDS011;4106;52.532;13.408;2022-09-21T03:19:43;1.40;;;1.40;;
8129;SDS011;4106;52.532;13.408;2022-09-21T03:22:12;1.40;;;1.30;;
8129;SDS011;4106;52.532;13.408;2022-09-21T03:24:41;1.83;;;1.40;;
8129;SDS011;4106;52.532;13.408;2022-09-21T03:27:13;1.10;;;1.10;;
8129;SDS011;4106;52.532;13.408;2022-09-21T03:29:41;1.42;;;1.30;;
8129;SDS011;4106;52.532;13.408;2022-09-21T03:32:10;1.37;;;1.37;;
8129;SDS011;4106;52.532;13.408;2022-09-21T03:34:39;1.50;;;1.40;;
8129;SDS011;4106;52.532;13.408;2022-09-21T03:37:09;1.37;;;1.27;;
8129;SDS011;4106;52.532;13.408;2022-09-21T03:39:37;1.60;;;1.50;;
8129;SDS011;4106;52.532;13.408;2022-09-21T03:42:06;1.27;;;1.10;;
8129;SDS011;4106;52.532;13.408;2022-09-21T03:44:34;1.55;;;1.40;;
8129;SDS011;4106;52.532;13.408;2022-09-21T03:47:03;2.12;;;1.40;;
8129;SDS011;4106;52.532;13.408;2022-09-21T03:49:32;1.50;;;1.40;;
8129;SDS011;4106;52.532;13.408;2022-09-21T03:52:01;1.15;;;1.15;;
8129;SDS011;4106;52.532;13.408;2022-09-21T03:54:30;1.50;;;1.40;;
8129;SDS011;4106;52.532;13.408;2022-09-21T03:56:59;1.62;;;1.42;;
8129;SDS011;4106;52.532;13.408;2022-09-21T03:59:28;1.20;;;1.20;;
8129;SDS011;4106;52.532;13.408;2022-09-21T04:01:56;1.60;;;1.50;;
8129;SDS011;4106;52.532;13.408;2022-09-21T04:04:25;1.50;;;1.40;;
8129;SDS011;4106;52.532;13.408;2022-09-21T04:06:54;1.40;;;1.30;;
8129;SDS011;4106;52.532;13.408;2022-09-21T04:09:23;2.35;;;1.20;;
8129;SDS011;4106;52.532;13.408;2022-09-21T04:11:52;2.60;;;1.48;;
8129;SDS011;4106;52.532;13.408;2022-09-21T04:14:21;2.15;;;1.30;;
8129;SDS011;4106;52.532;13.408;2022-09-21T04:16:49;1.30;;;1.30;;
8129;SDS011;4106;52.532;13.408;2022-09-21T04:19:18;1.40;;;1.30;;
8129;SDS011;4106;52.532;13.408;2022-09-21T04:21:47;1.23;;;1.15;;
8129;SDS011;4106;52.532;13.408;2022-09-21T04:24:16;1.52;;;1.42;;
8129;SDS011;4106;52.532;13.408;2022-09-21T04:26:45;1.60;;;1.50;;
8129;SDS011;4106;52.532;13.408;2022-09-21T04:29:14;1.20;;;1.20;;
8129;SDS011;4106;52.532;13.408;2022-09-21T04:31:42;1.50;;;1.37;;
8129;SDS011;4106;52.532;13.408;2022-09-21T04:34:12;1.20;;;1.10;;
8129;SDS011;4106;52.532;13.408;2022-09-21T04:36:40;1.30;;;1.27;;
8129;SDS011;4106;52.532;13.408;2022-09-21T04:39:09;1.33;;;1.23;;
8129;SDS011;4106;52.532;13.408;2022-09-21T04:41:38;1.40;;;1.30;;
8129;SDS011;4106;52.532;13.408;2022-09-21T04:44:07;1.98;;;1.20;;
8129;SDS011;4106;52.532;13.408;2022-09-21T04:46:36;1.33;;;1.33;;
8129;SDS011;4106;52.532;13.408;2022-09-21T04:49:04;1.40;;;1.30;;
8129;SDS011;4106;52.532;13.408;2022-09-21T04:51:33;1.35;;;1.25;;
8129;SDS011;4106;52.532;13.408;2022-09-21T04:54:03;1.60;;;1.50;;
8129;SDS011;4106;52.532;13.408;2022-09-21T04:56:32;1.42;;;1.30;;
8129;SDS011;4106;52.532;13.408;2022-09-21T04:59:01;1.37;;;1.27;;
8129;SDS011;4106;52.532;13.408;2022-09-21T05:01:30;1.40;;;1.30;;
8129;SDS011;4106;52.532;13.408;2022-09-21T05:03:58;2.58;;;1.23;;
8129;SDS011;4106;52.532;13.408;2022-09-21T05:06:28;1.58;;;1.37;;
8129;SDS011;4106;52.532;13.408;2022-09-21T05:08:56;1.42;;;1.30;;
8129;SDS011;4106;52.532;13.408;2022-09-21T05:11:31;1.00;;;1.00;;
8129;SDS011;4106;52.532;13.408;2022-09-21T05:14:00;1.12;;;1.05;;
8129;SDS011;4106;52.532;13.408;2022-09-21T05:16:30;1.40;;;1.30;;
8129;SDS011;4106;52.532;13.408;2022-09-21T05:18:58;1.50;;;1.40;;
8129;SDS011;4106;52.532;13.408;2022-09-21T05:21:27;1.33;;;1.23;;
8129;SDS011;4106;52.532;13.408;2022-09-21T05:23:56;1.65;;;1.20;;
8129;SDS011;4106;52.532;13.408;2022-09-21T05:26:25;1.30;;;1.30;;
8129;SDS011;4106;52.532;13.408;2022-09-21T05:28:54;1.40;;;1.30;;
8129;SDS011;4106;52.532;13.408;2022-09-21T05:31:26;1.20;;;1.20;;
8129;SDS011;4106;52.532;13.408;2022-09-21T05:33:53;2.03;;;1.40;;
8129;SDS011;4106;52.532;13.408;2022-09-21T05:36:37;1.33;;;1.23;;
8129;SDS011;4106;52.532;13.408;2022-09-21T05:39:05;2.53;;;1.40;;
8129;SDS011;4106;52.532;13.408;2022-09-21T05:41:34;1.30;;;1.30;;
8129;SDS011;4106;52.532;13.408;2022-09-21T05:44:03;1.50;;;1.30;;
8129;SDS011;4106;52.532;13.408;2022-09-21T05:46:34;1.20;;;1.20;;
8129;SDS011;4106;52.532;13.408;2022-09-21T05:49:04;1.30;;;1.23;;
8129;SDS011;4106;52.532;13.408;2022-09-21T05:51:50;1.33;;;1.20;;
8129;SDS011;4106;52.532;13.408;2022-09-21T05:54:19;1.80;;;1.20;;
8129;SDS011;4106;52.532;13.408;2022-09-21T05:56:47;1.20;;;1.20;;
8129;SDS011;4106;52.532;13.408;2022-09-21T06:01:57;2.40;;;1.40;;
8129;SDS011;4106;52.532;13.408;2022-09-21T06:04:21;1.10;;;1.10;;
8129;SDS011;4106;52.532;13.408;2022-09-21T06:06:50;3.17;;;1.30;;
8129;SDS011;4106;52.532;13.408;2022-09-21T06:09:19;1.40;;;1.30;;
8129;SDS011;4106;52.532;13.408;2022-09-21T06:11:48;1.50;;;1.35;;
8129;SDS011;4106;52.532;13.408;2022-09-21T06:14:16;2.00;;;1.33;;
8129;SDS011;4106;52.532;13.408;2022-09-21T06:16:45;1.33;;;1.20;;
8129;SDS011;4106;52.532;13.408;2022-09-21T06:19:14;2.42;;;1.50;;
8129;SDS011;4106;52.532;13.408;2022-09-21T06:21:43;1.77;;;1.27;;
8129;SDS011;4106;52.532;13.408;2022-09-21T06:24:13;1.30;;;1.20;;
8129;SDS011;4106;52.532;13.408;2022-09-21T06:26:41;1.40;;;1.30;;
8129;SDS011;4106;52.532;13.408;2022-09-21T06:29:10;1.20;;;1.20;;
8129;SDS011;4106;52.532;13.408;2022-09-21T06:31:39;1.45;;;1.35;;
8129;SDS011;4106;52.532;13.408;2022-09-21T06:34:08;1.30;;;1.20;;
8129;SDS011;4106;52.532;13.408;2022-09-21T06:36:37;1.60;;;1.50;;
8129;SDS011;4106;52.532;13.408;2022-09-21T06:39:06;1.40;;;1.30;;
8129;SDS011;4106;52.532;13.408;2022-09-21T06:41:34;1.73;;;1.40;;
8129;SDS011;4106;52.532;13.408;2022-09-21T06:44:03;1.45;;;1.30;;
8129;SDS011;4106;52.532;13.408;2022-09-21T06:46:33;1.25;;;1.20;;
8129;SDS011;4106;52.532;13.408;2022-09-21T06:49:02;1.42;;;1.33;;
8129;SDS011;4106;52.532;13.408;2022-09-21T06:51:30;2.10;;;1.40;;
8129;SDS011;4106;52.532;13.408;2022-09-21T06:53:59;2.00;;;1.60;;
8129;SDS011;4106;52.532;13.408;2022-09-21T06:56:28;1.42;;;1.33;;
8129;SDS011;4106;52.532;13.408;2022-09-21T06:58:57;1.45;;;1.35;;
8129;SDS011;4106;52.532;13.408;2022-09-21T07:01:26;1.77;;;1.40;;
8129;SDS011;4106;52.532;13.408;2022-09-21T07:03:55;1.40;;;1.40;;
8129;SDS011;4106;52.532;13.408;2022-09-21T07:06:24;1.70;;;1.30;;
8129;SDS011;4106;52.532;13.408;2022-09-21T07:08:52;1.75;;;1.65;;
8129;SDS011;4106;52.532;13.408;2022-09-21T07:11:21;1.30;;;1.20;;
8129;SDS011;4106;52.532;13.408;2022-09-21T07:13:50;1.60;;;1.50;;
8129;SDS011;4106;52.532;13.408;2022-09-21T07:16:19;1.92;;;1.60;;
8129;SDS011;4106;52.532;13.408;2022-09-21T07:18:48;2.03;;;1.75;;
8129;SDS011;4106;52.532;13.408;2022-09-21T07:21:17;2.22;;;1.40;;
8129;SDS011;4106;52.532;13.408;2022-09-21T07:23:45;1.80;;;1.58;;
8129;SDS011;4106;52.532;13.408;2022-09-21T07:26:14;2.58;;;1.52;;
8129;SDS011;4106;52.532;13.408;2022-09-21T07:28:43;2.97;;;1.87;;
8129;SDS011;4106;52.532;13.408;2022-09-21T07:31:13;1.58;;;1.48;;
8129;SDS011;4106;52.532;13.408;2022-09-21T07:33:42;1.85;;;1.75;;
8129;SDS011;4106;52.532;13.408;2022-09-21T07:36:11;2.58;;;1.60;;
8129;SDS011;4106;52.532;13.408;2022-09-21T07:38:41;1.90;;;1.60;;
8129;SDS011;4106;52.532;13.408;2022-09-21T07:41:09;1.90;;;1.80;;
8129;SDS011;4106;52.532;13.408;2022-09-21T07:43:38;2.45;;;1.60;;
8129;SDS011;4106;52.532;13.408;2022-09-21T07:46:08;2.83;;;1.60;;
8129;SDS011;4106;52.532;13.408;2022-09-21T07:48:36;1.80;;;1.70;;
8129;SDS011;4106;52.532;13.408;2022-09-21T07:51:06;2.90;;;1.85;;
8129;SDS011;4106;52.532;13.408;2022-09-21T07:53:35;2.45;;;1.90;;
8129;SDS011;4106;52.532;13.408;2022-09-21T07:56:05;2.05;;;1.77;;
8129;SDS011;4106;52.532;13.408;2022-09-21T07:58:34;1.80;;;1.70;;
8129;SDS011;4106;52.532;13.408;2022-09-21T08:01:08;2.10;;;1.90;;
8129;SDS011;4106;52.532;13.408;2022-09-21T08:03:37;1.70;;;1.60;;
8129;SDS011;4106;52.532;13.408;2022-09-21T08:06:06;1.87;;;1.77;;
8129;SDS011;4106;52.532;13.408;2022-09-21T08:08:35;2.75;;;1.80;;
8129;SDS011;4106;52.532;13.408;2022-09-21T08:11:04;1.95;;;1.83;;
8129;SDS011;4106;52.532;13.408;2022-09-21T08:13:33;1.67;;;1.58;;
8129;SDS011;4106;52.532;13.408;2022-09-21T08:16:02;2.58;;;1.75;;
8129;SDS011;4106;52.532;13.408;2022-09-21T08:18:30;1.50;;;1.40;;
8129;SDS011;4106;52.532;13.408;2022-09-21T08:20:59;1.83;;;1.73;;
8129;SDS011;4106;52.532;13.408;2022-09-21T08:23:28;1.77;;;1.52;;
8129;SDS011;4106;52.532;13.408;2022-09-21T08:25:58;1.90;;;1.62;;
8129;SDS011;4106;52.532;13.408;2022-09-21T08:28:27;3.22;;;1.73;;
8129;SDS011;4106;52.532;13.408;2022-09-21T08:30:58;1.80;;;1.70;;
8129;SDS011;4106;52.532;13.408;2022-09-21T08:33:26;1.62;;;1.52;;
8129;SDS011;4106;52.532;13.408;2022-09-21T08:35:56;2.17;;;1.52;;
8129;SDS011;4106;52.532;13.408;2022-09-21T08:38:24;1.73;;;1.62;;
8129;SDS011;4106;52.532;13.408;2022-09-21T08:40:53;1.73;;;1.62;;
8129;SDS011;4106;52.532;13.408;2022-09-21T08:43:30;1.92;;;1.70;;
8129;SDS011;4106;52.532;13.408;2022-09-21T08:45:57;1.70;;;1.60;;
8129;SDS011;4106;52.532;13.408;2022-09-21T08:48:27;11.45;;;1.95;;
8129;SDS011;4106;52.532;13.408;2022-09-21T08:50:56;4.18;;;2.00;;
8129;SDS011;4106;52.532;13.408;2022-09-21T08:53:25;3.22;;;1.92;;
8129;SDS011;4106;52.532;13.408;2022-09-21T08:55:55;3.03;;;1.77;;
8129;SDS011;4106;52.532;13.408;2022-09-21T08:58:24;2.42;;;1.75;;
8129;SDS011;4106;52.532;13.408;2022-09-21T09:00:56;2.72;;;1.98;;
8129;SDS011;4106;52.532;13.408;2022-09-21T09:03:26;1.65;;;1.52;;
8129;SDS011;4106;52.532;13.408;2022-09-21T09:05:54;2.30;;;1.87;;
8129;SDS011;4106;52.532;13.408;2022-09-21T09:08:24;5.53;;;1.77;;
8129;SDS011;4106;52.532;13.408;2022-09-21T09:13:40;2.37;;;1.87;;
8129;SDS011;4106;52.532;13.408;2022-09-21T09:16:10;2.65;;;1.70;;
8129;SDS011;4106;52.532;13.408;2022-09-21T09:18:41;2.15;;;1.37;;
8129;SDS011;4106;52.532;13.408;2022-09-21T09:21:10;2.97;;;1.80;;
8129;SDS011;4106;52.532;13.408;2022-09-21T09:23:40;6.53;;;1.73;;
8129;SDS011;4106;52.532;13.408;2022-09-21T09:26:10;1.75;;;1.65;;
8129;SDS011;4106;52.532;13.408;2022-09-21T09:28:37;3.55;;;1.62;;
8129;SDS011;4106;52.532;13.408;2022-09-21T09:31:11;2.83;;;1.60;;
8129;SDS011;4106;52.532;13.408;2022-09-21T09:33:43;2.95;;;1.90;;
8129;SDS011;4106;52.532;13.408;2022-09-21T09:36:10;5.62;;;1.58;;
8129;SDS011;4106;52.532;13.408;2022-09-21T09:38:43;2.28;;;1.98;;
8129;SDS011;4106;52.532;13.408;2022-09-21T09:41:18;3.15;;;1.52;;
8129;SDS011;4106;52.532;13.408;2022-09-21T09:43:51;2.35;;;1.92;;
8129;SDS011;4106;52.532;13.408;2022-09-21T09:50:11;4.30;;;1.87;;
8129;SDS011;4106;52.532;13.408;2022-09-21T09:51:48;2.55;;;1.70;;
8129;SDS011;4106;52.532;13.408;2022-09-21T09:54:17;2.28;;;1.62;;
8129;SDS011;4106;52.532;13.408;2022-09-21T09:56:46;4.72;;;2.20;;
8129;SDS011;4106;52.532;13.408;2022-09-21T09:59:47;2.15;;;1.58;;
8129;SDS011;4106;52.532;13.408;2022-09-21T10:02:00;1.62;;;1.52;;
8129;SDS011;4106;52.532;13.408;2022-09-21T10:04:28;3.22;;;1.90;;
8129;SDS011;4106;52.532;13.408;2022-09-21T10:06:57;1.60;;;1.48;;
8129;SDS011;4106;52.532;13.408;2022-09-21T10:09:28;2.28;;;1.77;;
8129;SDS011;4106;52.532;13.408;2022-09-21T10:12:22;2.25;;;1.60;;
8129;SDS011;4106;52.532;13.408;2022-09-21T10:14:34;4.62;;;1.90;;
8129;SDS011;4106;52.532;13.408;2022-09-21T10:17:04;3.17;;;1.50;;
8129;SDS011;4106;52.532;13.408;2022-09-21T10:19:31;11.12;;;1.80;;
8129;SDS011;4106;52.532;13.408;2022-09-21T10:22:01;5.47;;;1.70;;
8129;SDS011;4106;52.532;13.408;2022-09-21T10:24:30;3.95;;;1.70;;
8129;SDS011;4106;52.532;13.408;2022-09-21T10:32:20;2.90;;;1.73;;
8129;SDS011;4106;52.532;13.408;2022-09-21T10:37:27;2.80;;;1.65;;
8129;SDS011;4106;52.532;13.408;2022-09-21T10:39:55;2.05;;;1.50;;
8129;SDS011;4106;52.532;13.408;2022-09-21T10:42:24;1.87;;;1.27;;
8129;SDS011;4106;52.532;13.408;2022-09-21T10:45:03;3.28;;;1.45;;
8129;SDS011;4106;52.532;13.408;2022-09-21T10:47:22;2.58;;;2.03;;
8129;SDS011;4106;52.532;13.408;2022-09-21T10:49:52;1.45;;;1.30;;
8129;SDS011;4106;52.532;13.408;2022-09-21T10:52:22;2.92;;;1.37;;
8129;SDS011;4106;52.532;13.408;2022-09-21T10:54:52;2.37;;;1.40;;
8129;SDS011;4106;52.532;13.408;2022-09-21T10:57:19;1.77;;;1.50;;
8129;SDS011;4106;52.532;13.408;2022-09-21T10:59:47;3.12;;;1.30;;
8129;SDS011;4106;52.532;13.408;2022-09-21T11:02:26;2.05;;;1.50;;
8129;SDS011;4106;52.532;13.408;2022-09-21T11:04:58;2.22;;;1.17;;
8129;SDS011;4106;52.532;13.408;2022-09-21T11:07:30;1.12;;;1.12;;
8129;SDS011;4106;52.532;13.408;2022-09-21T11:12:46;2.53;;;1.65;;
8129;SDS011;4106;52.532;13.408;2022-09-21T11:15:29;3.50;;;1.42;;
8129;SDS011;4106;52.532;13.408;2022-09-21T11:18:04;2.37;;;1.20;;
8129;SDS011;4106;52.532;13.408;2022-09-21T11:20:34;1.12;;;1.00;;
8129;SDS011;4106;52.532;13.408;2022-09-21T11:23:02;1.35;;;1.10;;
8129;SDS011;4106;52.532;13.408;2022-09-21T11:25:31;1.77;;;1.00;;
8129;SDS011;4106;52.532;13.408;2022-09-21T11:28:01;3.83;;;1.35;;
8129;SDS011;4106;52.532;13.408;2022-09-21T11:30:30;1.33;;;1.17;;
8129;SDS011;4106;52.532;13.408;2022-09-21T11:35:34;1.70;;;1.20;;
8129;SDS011;4106;52.532;13.408;2022-09-21T11:38:04;1.85;;;1.17;;
8129;SDS011;4106;52.532;13.408;2022-09-21T11:40:39;2.72;;;1.25;;
8129;SDS011;4106;52.532;13.408;2022-09-21T11:43:09;3.25;;;1.15;;
8129;SDS011;4106;52.532;13.408;2022-09-21T11:48:15;1.65;;;1.08;;
8129;SDS011;4106;52.532;13.408;2022-09-21T11:50:46;1.40;;;1.30;;
8129;SDS011;4106;52.532;13.408;2022-09-21T11:53:22;1.45;;;1.30;;
8129;SDS011;4106;52.532;13.408;2022-09-21T11:55:50;1.48;;;0.90;;
8129;SDS011;4106;52.532;13.408;2022-09-21T11:58:19;0.95;;;0.95;;
8129;SDS011;4106;52.532;13.408;2022-09-21T12:00:49;1.00;;;1.00;;
8129;SDS011;4106;52.532;13.408;2022-09-21T12:03:22;1.37;;;1.05;;
8129;SDS011;4106;52.532;13.408;2022-09-21T12:05:51;1.98;;;1.02;;
8129;SDS011;4106;52.532;13.408;2022-09-21T12:10:54;1.42;;;0.90;;
8129;SDS011;4106;52.532;13.408;2022-09-21T12:13:25;2.12;;;0.98;;
8129;SDS011;4106;52.532;13.408;2022-09-21T12:18:37;1.10;;;1.10;;
8129;SDS011;4106;52.532;13.408;2022-09-21T12:23:42;3.05;;;1.52;;
8129;SDS011;4106;52.532;13.408;2022-09-21T12:26:10;1.20;;;1.20;;
8129;SDS011;4106;52.532;13.408;2022-09-21T12:28:39;2.80;;;1.20;;
8129;SDS011;4106;52.532;13.408;2022-09-21T12:31:10;1.05;;;1.00;;
8129;SDS011;4106;52.532;13.408;2022-09-21T12:33:38;3.40;;;1.17;;
8129;SDS011;4106;52.532;13.408;2022-09-21T12:36:09;2.78;;;1.52;;
8129;SDS011;4106;52.532;13.408;2022-09-21T12:38:39;3.53;;;1.20;;
8129;SDS011;4106;52.532;13.408;2022-09-21T12:41:14;1.95;;;0.90;;
8129;SDS011;4106;52.532;13.408;2022-09-21T12:43:56;1.58;;;1.00;;
8129;SDS011;4106;52.532;13.408;2022-09-21T12:46:28;1.25;;;1.05;;
8129;SDS011;4106;52.532;13.408;2022-09-21T12:48:53;5.47;;;0.93;;
8129;SDS011;4106;52.532;13.408;2022-09-21T12:51:24;2.50;;;0.95;;
8129;SDS011;4106;52.532;13.408;2022-09-21T12:53:52;1.85;;;1.00;;
8129;SDS011;4106;52.532;13.408;2022-09-21T12:56:23;2.72;;;1.00;;
8129;SDS011;4106;52.532;13.408;2022-09-21T12:59:07;1.62;;;1.05;;
8129;SDS011;4106;52.532;13.408;2022-09-21T13:01:51;1.30;;;1.10;;
8129;SDS011;4106;52.532;13.408;2022-09-21T13:04:23;0.90;;;0.90;;
8129;SDS011;4106;52.532;13.408;2022-09-21T13:07:09;0.95;;;0.95;;
8129;SDS011;4106;52.532;13.408;2022-09-21T13:09:32;1.10;;;1.10;;
8129;SDS011;4106;52.532;13.408;2022-09-21T13:12:05;1.02;;;0.90;;
8129;SDS011;4106;52.532;13.408;2022-09-21T13:14:30;0.95;;;0.93;;
8129;SDS011;4106;52.532;13.408;2022-09-21T13:16:59;0.95;;;0.95;;
8129;SDS011;4106;52.532;13.408;2022-09-21T13:19:29;1.17;;;1.00;;
8129;SDS011;4106;52.532;13.408;2022-09-21T13:24:31;1.05;;;0.95;;
8129;SDS011;4106;52.532;13.408;2022-09-21T13:27:00;1.25;;;0.80;;
8129;SDS011;4106;52.532;13.408;2022-09-21T13:29:30;0.80;;;0.80;;
8129;SDS011;4106;52.532;13.408;2022-09-21T13:32:00;1.37;;;1.02;;
8129;SDS011;4106;52.532;13.408;2022-09-21T13:34:29;1.00;;;0.98;;
8129;SDS011;4106;52.532;13.408;2022-09-21T13:39:32;1.45;;;1.00;;
8129;SDS011;4106;52.532;13.408;2022-09-21T13:42:41;3.25;;;1.10;;
8129;SDS011;4106;52.532;13.408;2022-09-21T13:44:42;2.20;;;0.93;;
8129;SDS011;4106;52.532;13.408;2022-09-21T13:47:11;2.20;;;1.00;;
8129;SDS011;4106;52.532;13.408;2022-09-21T13:49:44;2.00;;;1.00;;
8129;SDS011;4106;52.532;13.408;2022-09-21T13:52:20;3.37;;;0.93;;
8129;SDS011;4106;52.532;13.408;2022-09-21T13:54:51;9.63;;;1.10;;
8129;SDS011;4106;52.532;13.408;2022-09-21T13:57:22;2.87;;;1.08;;
8129;SDS011;4106;52.532;13.408;2022-09-21T13:59:58;2.00;;;0.90;;
8129;SDS011;4106;52.532;13.408;2022-09-21T14:02:22;6.03;;;1.30;;
8129;SDS011;4106;52.532;13.408;2022-09-21T14:04:49;1.25;;;1.10;;
8129;SDS011;4106;52.532;13.408;2022-09-21T14:07:18;4.93;;;1.12;;
8129;SDS011;4106;52.532;13.408;2022-09-21T14:09:52;1.75;;;0.90;;
8129;SDS011;4106;52.532;13.408;2022-09-21T14:12:19;2.37;;;1.10;;
8129;SDS011;4106;52.532;13.408;2022-09-21T14:15:10;2.25;;;1.17;;
8129;SDS011;4106;52.532;13.408;2022-09-21T14:17:38;3.95;;;0.90;;
8129;SDS011;4106;52.532;13.408;2022-09-21T14:20:37;3.45;;;1.00;;
8129;SDS011;4106;52.532;13.408;2022-09-21T14:22:49;2.95;;;1.12;;
8129;SDS011;4106;52.532;13.408;2022-09-21T14:25:23;2.05;;;1.10;;
8129;SDS011;4106;52.532;13.408;2022-09-21T14:27:50;3.55;;;1.10;;
8129;SDS011;4106;52.532;13.408;2022-09-21T14:30:20;4.12;;;1.33;;
8129;SDS011;4106;52.532;13.408;2022-09-21T14:35:36;1.02;;;0.90;;
8129;SDS011;4106;52.532;13.408;2022-09-21T14:38:06;1.70;;;1.02;;
8129;SDS011;4106;52.532;13.408;2022-09-21T14:40:35;1.75;;;1.00;;
8129;SDS011;4106;52.532;13.408;2022-09-21T14:43:06;4.45;;;1.10;;
8129;SDS011;4106;52.532;13.408;2022-09-21T14:45:53;1.10;;;1.00;;
8129;SDS011;4106;52.532;13.408;2022-09-21T14:51:09;1.37;;;1.10;;
8129;SDS011;4106;52.532;13.408;2022-09-21T14:53:51;1.12;;;1.10;;
8129;SDS011;4106;52.532;13.408;2022-09-21T14:56:20;1.60;;;0.95;;
8129;SDS011;4106;52.532;13.408;2022-09-21T14:58:56;1.20;;;0.88;;
8129;SDS011;4106;52.532;13.408;2022-09-21T15:01:33;2.45;;;0.80;;
8129;SDS011;4106;52.532;13.408;2022-09-21T15:04:04;1.15;;;1.05;;
8129;SDS011;4106;52.532;13.408;2022-09-21T15:06:30;1.80;;;1.00;;
8129;SDS011;4106;52.532;13.408;2022-09-21T15:09:09;0.90;;;0.88;;
8129;SDS011;4106;52.532;13.408;2022-09-21T15:11:50;1.23;;;1.12;;
8129;SDS011;4106;52.532;13.408;2022-09-21T15:14:19;2.50;;;0.85;;
8129;SDS011;4106;52.532;13.408;2022-09-21T15:16:48;2.10;;;0.90;;
8129;SDS011;4106;52.532;13.408;2022-09-21T15:19:21;0.80;;;0.80;;
8129;SDS011;4106;52.532;13.408;2022-09-21T15:21:50;0.77;;;0.77;;
8129;SDS011;4106;52.532;13.408;2022-09-21T15:24:24;1.05;;;0.90;;
8129;SDS011;4106;52.532;13.408;2022-09-21T15:26:49;3.25;;;1.20;;
8129;SDS011;4106;52.532;13.408;2022-09-21T15:29:23;0.80;;;0.80;;
8129;SDS011;4106;52.532;13.408;2022-09-21T15:31:49;1.15;;;0.90;;
8129;SDS011;4106;52.532;13.408;2022-09-21T15:34:18;0.90;;;0.90;;
8129;SDS011;4106;52.532;13.408;2022-09-21T15:36:48;1.40;;;0.90;;
8129;SDS011;4106;52.532;13.408;2022-09-21T15:41:55;0.90;;;0.90;;
8129;SDS011;4106;52.532;13.408;2022-09-21T15:44:23;1.37;;;0.80;;
8129;SDS011;4106;52.532;13.408;2022-09-21T15:46:52;0.90;;;0.90;;
8129;SDS011;4106;52.532;13.408;2022-09-21T15:49:19;0.73;;;0.73;;
8129;SDS011;4106;52.532;13.408;2022-09-21T15:51:54;2.47;;;0.85;;
8129;SDS011;4106;52.532;13.408;2022-09-21T15:56:58;0.80;;;0.80;;
8129;SDS011;4106;52.532;13.408;2022-09-21T15:59:26;1.00;;;1.00;;
8129;SDS011;4106;52.532;13.408;2022-09-21T16:01:56;0.98;;;0.80;;
8129;SDS011;4106;52.532;13.408;2022-09-21T16:04:24;0.88;;;0.88;;
8129;SDS011;4106;52.532;13.408;2022-09-21T16:06:58;1.12;;;1.02;;
8129;SDS011;4106;52.532;13.408;2022-09-21T16:09:26;0.80;;;0.77;;
8129;SDS011;4106;52.532;13.408;2022-09-21T16:11:55;1.80;;;0.80;;
8129;SDS011;4106;52.532;13.408;2022-09-21T16:14:23;11.20;;;2.17;;
8129;SDS011;4106;52.532;13.408;2022-09-21T16:19:39;6.22;;;1.87;;